KCAK/CAK METAR and TAF weather

Enter ICAO airport designator
Station Type Date Time Source
KCAK METAR 2021/09/24 02:51 UTC NOAA

KCAK 240251Z 24012G18KT 10SM OVC032 12/08 A2993 RMK AO2 SLP137 T01220078 51008


Station Type Date Time Source
KCAK Decoded METAR 2021/09/24 02:51 UTC NOAA

AKRON-CANTON REGIONAL AIRPORT , OH, United States (KCAK) 40-55N 081-27W 377M
Sep 23, 2021 - 10:51 PM EDT / 2021.09.24 0251 UTC
Wind: from the WSW (240 degrees) at 14 MPH (12 KT) gusting to 21 MPH (18 KT):0
Visibility: 10 mile(s):0
Sky conditions: overcast
Temperature: 54.0 F (12.2 C)
Dew Point: 46.0 F (7.8 C)
Relative Humidity: 74%
Pressure (altimeter): 29.93 in. Hg (1013 hPa)
Pressure tendency: 0.02 inches (0.8 hPa) higher than three hours ago
ob: KCAK 240251Z 24012G18KT 10SM OVC032 12/08 A2993 RMK AO2 SLP137 T01220078 51008
cycle: 3

Station Type Date Time Source
KCAK TAF 2021/09/23 18:30 UTC NOAA

TAF KCAK 231726Z 2318/2418 22014KT P6SM OVC015
TEMPO 2318/2319 -DZ
FM231900 22013G21KT P6SM VCSH OVC015
FM240400 23012G20KT P6SM OVC040
FM240600 23010KT P6SM BKN040
FM241300 24009KT P6SM FEW130

Example: see airport list